Time;durP1;ratioP1;P1;durP2;ratioP2;P2;SDS_P1;SDS_P2;PMS_P1;PMS_P2;Temp;Humidity;BMP_temperature;BMP_pressure;BME280_temperature;BME280_humidity;BME280_pressure;Samples;Min_cycle;Max_cycle;Signal;HPM_P1;HPM_P2
2020/12/21 00:00:11;;;;;;;6.93;0.98;;;6.10;99.90;;;6.08;100.00;101795.56;4855989;29;20043;-93
2020/12/21 00:02:37;;;;;;;11.30;1.70;;;6.10;99.90;;;6.07;100.00;101783.03;4866137;29;20036;-91
2020/12/21 00:05:05;;;;;;;5.03;1.05;;;6.10;99.90;;;6.11;100.00;101787.13;4843781;29;20033;-91
2020/12/21 00:07:32;;;;;;;5.53;1.60;;;6.20;99.90;;;6.26;100.00;101783.94;4847541;29;20041;-90
2020/12/21 00:09:59;;;;;;;8.07;2.08;;;6.40;99.90;;;6.20;100.00;101782.72;4842409;29;20040;-90
2020/12/21 00:12:24;;;;;;;10.82;1.20;;;6.30;99.90;;;6.21;100.00;101784.38;4845813;29;20030;-91
2020/12/21 00:14:50;;;;;;;2.60;0.73;;;6.40;99.90;;;6.23;100.00;101781.53;4854592;29;20038;-91
2020/12/21 00:17:16;;;;;;;6.38;1.27;;;6.40;99.90;;;6.24;100.00;101780.53;4855489;29;20029;-90
2020/12/21 00:19:42;;;;;;;3.67;1.13;;;6.40;99.90;;;6.25;100.00;101775.00;4839852;29;20042;-93
2020/12/21 00:22:08;;;;;;;7.00;1.23;;;6.30;99.90;;;6.11;100.00;101776.31;4855199;29;20041;-90
2020/12/21 00:24:34;;;;;;;6.20;1.00;;;6.30;99.90;;;6.10;100.00;101777.31;4851044;29;20038;-91
2020/12/21 00:27:00;;;;;;;3.28;0.98;;;6.30;99.90;;;5.99;100.00;101780.19;4851853;29;20046;-90
2020/12/21 00:29:26;;;;;;;6.00;1.38;;;6.50;99.90;;;5.98;100.00;101778.50;4861912;29;20048;-93
2020/12/21 00:31:56;;;;;;;10.27;2.00;;;6.20;99.90;;;6.05;100.00;101776.94;4813261;29;20026;-91
2020/12/21 00:34:22;;;;;;;5.22;1.50;;;6.20;99.90;;;5.98;100.00;101772.28;4852868;29;20059;-89
2020/12/21 00:36:53;;;;;;;4.57;1.30;;;6.30;99.90;;;5.92;100.00;101768.28;4850237;29;20053;-92
2020/12/21 00:39:19;;;;;;;7.35;1.23;;;6.70;99.90;;;5.98;100.00;101774.97;4851617;29;20029;-89
2020/12/21 00:41:46;;;;;;;4.20;1.13;;;6.10;99.90;;;5.89;100.00;101760.47;4854215;29;20026;-90
2020/12/21 00:44:12;;;;;;;4.90;0.95;;;6.10;99.90;;;5.85;100.00;101772.56;4853939;29;20029;-92
2020/12/21 00:46:39;;;;;;;3.78;0.93;;;6.10;99.90;;;5.80;100.00;101764.03;4868896;29;20036;-90
2020/12/21 00:49:06;;;;;;;7.63;1.30;;;6.10;99.90;;;5.95;100.00;101764.44;4838602;29;20038;-91
2020/12/21 00:51:32;;;;;;;5.70;1.88;;;6.10;99.90;;;5.78;100.00;101766.88;4852620;29;20029;-92
2020/12/21 00:53:59;;;;;;;3.65;1.17;;;6.10;99.90;;;5.88;100.00;101761.47;4823351;29;20055;-91
2020/12/21 00:56:25;;;;;;;5.80;1.63;;;6.60;99.90;;;5.85;100.00;101756.34;4839686;29;20059;-91
2020/12/21 00:58:52;;;;;;;7.53;2.38;;;6.10;99.90;;;5.82;100.00;101765.59;4822536;29;20087;-91
2020/12/21 01:01:28;;;;;;;7.68;1.30;;;6.10;99.90;;;5.77;100.00;101758.91;4809215;29;20033;-90
2020/12/21 01:03:59;;;;;;;4.53;1.05;;;6.30;99.90;;;5.84;100.00;101768.16;4838085;29;20042;-91
2020/12/21 01:06:25;;;;;;;7.70;1.25;;;6.00;99.90;;;5.78;100.00;101760.63;4838033;29;20036;-90
2020/12/21 01:08:51;;;;;;;4.35;1.63;;;6.00;99.90;;;5.71;100.00;101759.50;4835861;29;20091;-89
2020/12/21 01:11:17;;;;;;;4.90;1.80;;;6.00;99.90;;;5.66;100.00;101761.78;4835023;29;20042;-91
2020/12/21 01:13:46;;;;;;;5.25;1.63;;;5.90;99.90;;;5.65;100.00;101760.09;4837265;29;20026;-90
2020/12/21 01:16:12;;;;;;;4.40;1.15;;;5.90;99.90;;;5.60;100.00;101762.38;4876031;29;20124;-91
2020/12/21 01:18:38;;;;;;;7.07;2.63;;;6.40;99.90;;;5.59;100.00;101757.97;4841891;29;20050;-91
2020/12/21 01:21:04;;;;;;;4.03;1.23;;;6.10;99.90;;;5.55;100.00;101764.66;4823946;29;20037;-91
2020/12/21 01:23:35;;;;;;;8.75;1.50;;;5.80;99.90;;;5.47;100.00;101762.69;4822677;29;20133;-90
2020/12/21 01:26:01;;;;;;;4.47;1.00;;;5.80;99.90;;;5.43;100.00;101762.13;4807179;29;20037;-89
2020/12/21 01:28:28;;;;;;;7.75;1.60;;;5.70;99.90;;;5.45;100.00;101760.13;4841561;29;20457;-91
2020/12/21 01:31:01;;;;;;;3.83;1.40;;;5.70;99.90;;;5.46;100.00;101756.44;4846693;29;20070;-92
2020/12/21 01:33:30;;;;;;;4.05;1.73;;;6.00;99.90;;;5.42;100.00;101754.16;4849984;29;20036;-91
2020/12/21 01:35:56;;;;;;;8.02;2.50;;;5.70;99.90;;;5.38;100.00;101764.41;4856035;29;20033;-91
2020/12/21 01:38:27;;;;;;;8.05;1.85;;;5.90;99.90;;;5.38;100.00;101769.81;4847565;29;20022;-90
2020/12/21 01:40:56;;;;;;;4.28;1.20;;;5.70;99.90;;;5.30;100.00;101769.69;4823887;29;20033;-91
2020/12/21 01:43:27;;;;;;;6.53;1.58;;;6.20;99.90;;;5.34;100.00;101779.19;4837543;29;20044;-90
2020/12/21 01:46:16;;;;;;;5.32;1.73;;;5.50;99.90;;;5.19;100.00;101764.44;4821776;29;20040;-90
2020/12/21 01:48:44;;;;;;;2.97;1.67;;;5.50;99.90;;;5.34;100.00;101771.09;4837642;29;20030;-90
2020/12/21 01:51:29;;;;;;;6.75;1.90;;;6.00;99.90;;;5.38;100.00;101769.81;4821454;29;20489;-92
2020/12/21 01:53:56;;;;;;;6.93;3.15;;;5.50;99.90;;;5.34;100.00;101773.78;4839842;29;20048;-91
2020/12/21 01:56:23;;;;;;;9.02;2.28;;;5.50;99.90;;;5.33;100.00;101766.69;4853794;29;20128;-91
2020/12/21 01:58:52;;;;;;;3.08;2.00;;;5.60;99.90;;;5.26;100.00;101778.19;4840999;29;20026;-91
2020/12/21 02:01:19;;;;;;;5.32;2.00;;;5.50;99.90;;;5.16;100.00;101769.25;4839486;29;20060;-90
2020/12/21 02:03:48;;;;;;;5.55;1.67;;;5.50;99.90;;;5.27;100.00;101772.66;4843558;29;20033;-91
2020/12/21 02:06:17;;;;;;;6.32;1.83;;;6.00;99.90;;;5.25;100.00;101776.50;4845275;29;20041;-90
2020/12/21 02:08:43;;;;;;;7.45;2.33;;;5.50;99.90;;;5.25;100.00;101774.66;4840044;29;20076;-90
2020/12/21 02:11:10;;;;;;;4.72;1.98;;;5.50;99.90;;;5.28;100.00;101778.91;4839379;29;20034;-90
2020/12/21 02:13:39;;;;;;;7.88;2.47;;;5.40;99.90;;;5.24;100.00;101777.50;4843472;29;20041;-94
2020/12/21 02:16:05;;;;;;;5.88;2.03;;;5.40;99.90;;;5.22;100.00;101780.31;4838890;29;20033;-90
2020/12/21 02:18:31;;;;;;;8.13;3.25;;;5.40;99.90;;;5.18;100.00;101781.63;4851670;29;20061;-91
2020/12/21 02:20:57;;;;;;;4.68;1.98;;;5.40;99.90;;;5.20;100.00;101776.06;4836747;29;20034;-91
2020/12/21 02:23:23;;;;;;;8.30;3.30;;;6.20;99.90;;;5.15;100.00;101771.09;4835871;29;20040;-90
2020/12/21 02:25:58;;;;;;;6.15;2.38;;;5.60;99.90;;;5.13;100.00;101765.00;4831292;29;20037;-90
2020/12/21 02:28:24;;;;;;;13.77;3.45;;;5.20;99.90;;;5.16;100.00;101761.16;4845741;29;20042;-91
2020/12/21 02:30:50;;;;;;;5.20;3.05;;;5.30;99.90;;;5.13;100.00;101754.19;4840559;29;20063;-90
2020/12/21 02:33:16;;;;;;;8.95;2.63;;;5.40;99.90;;;5.10;100.00;101759.88;4836026;29;20030;-90
2020/12/21 02:35:42;;;;;;;10.73;2.97;;;5.30;99.90;;;5.11;100.00;101761.59;4835548;29;20030;-90
2020/12/21 02:38:10;;;;;;;5.15;2.53;;;5.70;99.90;;;5.07;100.00;101760.19;4842732;29;20065;-90
2020/12/21 02:40:40;;;;;;;7.40;2.60;;;5.80;99.90;;;4.96;100.00;101768.41;4834747;29;20132;-91
2020/12/21 02:43:06;;;;;;;11.73;3.35;;;5.80;99.90;;;5.10;100.00;101766.13;4853158;29;20078;-91
2020/12/21 02:45:32;;;;;;;9.65;4.07;;;5.30;99.90;;;5.07;100.00;101770.97;4811144;29;20061;-92
2020/12/21 02:47:58;;;;;;;5.30;2.75;;;5.20;99.90;;;4.99;100.00;101768.97;4843982;29;20041;-92
2020/12/21 02:50:30;;;;;;;8.93;2.97;;;6.00;99.90;;;5.01;100.00;101755.34;4836785;29;20034;-89
2020/12/21 02:52:56;;;;;;;8.10;3.92;;;5.60;99.90;;;5.00;100.00;101761.72;4849270;29;20098;-90
2020/12/21 02:55:24;;;;;;;10.52;3.35;;;5.30;99.90;;;5.09;100.00;101763.56;4858712;29;20029;-90
2020/12/21 02:57:53;;;;;;;10.75;4.40;;;5.30;99.90;;;5.08;100.00;101751.06;4863474;29;20045;-89
2020/12/21 03:00:22;;;;;;;11.98;3.35;;;5.70;99.90;;;5.00;100.00;101751.78;4853782;29;20101;-90
2020/12/21 03:02:48;;;;;;;12.70;4.35;;;5.80;99.90;;;5.05;100.00;101756.78;4843158;29;20044;-91
2020/12/21 03:05:14;;;;;;;8.43;3.08;;;5.30;99.90;;;4.96;100.00;101761.19;4839603;29;20045;-91
2020/12/21 03:07:40;;;;;;;7.65;2.70;;;5.30;99.90;;;5.01;100.00;101758.03;4868721;29;20034;-90
2020/12/21 03:10:06;;;;;;;8.30;3.60;;;5.30;99.90;;;4.97;100.00;101760.16;4854780;29;20442;-90
2020/12/21 03:12:34;;;;;;;6.35;3.38;;;5.30;99.90;;;4.94;100.00;101759.59;4858366;29;20022;-91
2020/12/21 03:15:00;;;;;;;12.93;4.15;;;5.30;99.90;;;4.99;100.00;101751.91;4859441;29;20057;-91
2020/12/21 03:17:26;;;;;;;11.60;3.35;;;5.10;99.90;;;4.93;100.00;101755.19;4858034;29;20058;-92
2020/12/21 03:19:52;;;;;;;7.00;3.00;;;5.20;99.90;;;4.93;100.00;101757.91;4858143;29;20053;-90
2020/12/21 03:22:18;;;;;;;11.30;3.83;;;5.60;99.90;;;4.89;100.00;101761.84;4857474;29;20124;-91
2020/12/21 03:24:44;;;;;;;8.95;2.85;;;5.10;99.90;;;4.95;100.00;101758.63;4856181;29;20037;-91
2020/12/21 03:27:10;;;;;;;18.95;4.35;;;5.20;99.90;;;4.90;100.00;101774.34;4841206;29;20066;-91
2020/12/21 03:29:36;;;;;;;12.23;3.22;;;5.20;99.90;;;4.87;100.00;101771.94;4843436;29;20033;-91
2020/12/21 03:32:08;;;;;;;15.02;3.53;;;5.60;99.90;;;4.93;100.00;101774.09;4858598;29;20489;-91
2020/12/21 03:34:34;;;;;;;7.57;3.35;;;5.00;99.90;;;4.93;100.00;101766.00;4844654;29;20038;-91
2020/12/21 03:37:09;;;;;;;9.15;3.20;;;5.20;99.90;;;4.98;100.00;101769.09;4861020;29;20060;-94
2020/12/21 03:39:36;;;;;;;8.93;3.35;;;5.20;99.90;;;4.97;100.00;101770.09;4862060;29;20132;-94
2020/12/21 03:42:05;;;;;;;11.77;3.30;;;5.80;99.90;;;4.99;100.00;101757.31;4859998;29;20045;-93
2020/12/21 03:44:35;;;;;;;8.27;3.13;;;5.30;99.90;;;4.98;100.00;101755.63;4866593;29;20055;-92
2020/12/21 03:47:01;;;;;;;11.57;3.42;;;5.40;99.90;;;4.97;100.00;101759.31;4861962;29;20485;-94
2020/12/21 03:49:27;;;;;;;8.52;4.10;;;5.30;99.90;;;5.05;100.00;101754.06;4844891;29;20045;-93
2020/12/21 03:51:53;;;;;;;6.20;2.90;;;5.30;99.90;;;5.03;100.00;101743.41;4834239;29;20057;-92
2020/12/21 03:54:22;;;;;;;10.00;3.72;;;5.30;99.90;;;5.06;100.00;101742.28;4871696;29;20030;-94
2020/12/21 03:56:48;;;;;;;10.57;3.13;;;5.80;99.90;;;4.97;100.00;101740.41;4871422;29;20021;-91
2020/12/21 03:59:22;;;;;;;10.32;3.45;;;5.30;99.90;;;4.95;100.00;101745.13;4869748;29;20029;-92
2020/12/21 04:01:50;;;;;;;6.65;2.60;;;5.30;99.90;;;4.98;100.00;101744.81;4869855;29;20037;-93
2020/12/21 04:04:19;;;;;;;7.07;2.90;;;5.30;99.90;;;5.03;100.00;101735.31;4865250;29;20049;-92
2020/12/21 04:06:45;;;;;;;9.07;2.90;;;5.30;99.90;;;5.05;100.00;101741.44;4864214;29;20034;-91
2020/12/21 04:09:11;;;;;;;10.90;3.47;;;5.30;99.90;;;4.96;100.00;101736.03;4861826;29;20034;-91
2020/12/21 04:11:37;;;;;;;7.30;2.65;;;5.30;99.90;;;4.99;100.00;101731.19;4897005;29;20033;-92
2020/12/21 04:14:04;;;;;;;9.50;3.58;;;5.70;99.90;;;4.98;100.00;101726.78;4877221;29;20074;-93
2020/12/21 04:16:47;;;;;;;14.55;3.90;;;5.60;99.90;;;4.93;100.00;101730.91;4866168;29;20032;-93
2020/12/21 04:19:13;;;;;;;9.00;3.15;;;5.20;99.90;;;4.98;100.00;101712.44;4863761;29;20058;-91
2020/12/21 04:21:39;;;;;;;8.80;2.88;;;5.20;99.90;;;5.09;100.00;101725.78;4874305;29;20029;-93
2020/12/21 04:24:05;;;;;;;9.50;2.50;;;6.00;99.90;;;5.14;100.00;101720.81;4856976;29;20037;-94
2020/12/21 04:26:31;;;;;;;16.17;3.15;;;5.20;99.90;;;5.15;100.00;101717.13;4872235;29;20050;-92
2020/12/21 04:28:57;;;;;;;8.25;3.30;;;5.30;99.90;;;5.13;100.00;101710.16;4856689;29;20239;-93
2020/12/21 04:35:04;;;;;;;6.40;3.05;;;5.30;99.90;;;5.19;100.00;101705.06;4872526;29;20094;-94
2020/12/21 04:37:30;;;;;;;8.18;2.83;;;5.60;99.90;;;5.19;100.00;101705.06;4854567;29;20030;-91
2020/12/21 04:39:55;;;;;;;11.30;2.90;;;5.30;99.90;;;5.18;100.00;101703.38;4837355;29;20203;-92
2020/12/21 04:42:24;;;;;;;13.82;3.25;;;6.00;99.90;;;5.23;100.00;101705.59;4867900;29;20036;-92
2020/12/21 04:44:51;;;;;;;6.03;2.05;;;5.40;99.90;;;5.19;100.00;101699.66;4860253;29;20037;-92
2020/12/21 04:47:21;;;;;;;11.48;2.67;;;5.30;99.90;;;5.30;100.00;101704.06;4852643;29;20033;-91
2020/12/21 04:49:47;;;;;;;6.72;2.78;;;5.30;99.90;;;5.34;100.00;101700.91;4837764;29;20025;-93
2020/12/21 04:52:14;;;;;;;12.73;3.40;;;5.40;99.90;;;5.26;100.00;101698.09;4853264;29;20049;-91
2020/12/21 04:54:41;;;;;;;10.23;2.63;;;5.40;99.90;;;5.30;100.00;101696.81;4852739;29;20033;-91
2020/12/21 04:57:07;;;;;;;9.20;3.53;;;5.40;99.90;;;5.28;100.00;101700.63;4837323;29;20074;-92
2020/12/21 04:59:33;;;;;;;12.90;3.00;;;5.40;99.90;;;5.30;100.00;101696.81;4838088;29;20049;-92
2020/12/21 05:02:04;;;;;;;9.00;3.45;;;5.50;99.90;;;5.35;100.00;101694.50;4853211;29;20030;-92
2020/12/21 05:04:30;;;;;;;10.00;3.40;;;5.40;99.90;;;5.42;100.00;101689.38;4871733;29;20033;-92
2020/12/21 05:06:56;;;;;;;8.15;2.78;;;5.50;99.90;;;5.46;100.00;101680.84;4854778;29;20032;-93
2020/12/21 05:09:26;;;;;;;17.35;4.38;;;5.80;99.90;;;5.52;100.00;101678.56;4849532;29;20033;-91
2020/12/21 05:12:02;;;;;;;10.98;3.20;;;5.50;99.90;;;5.52;100.00;101663.22;4847667;29;20497;-91
2020/12/21 05:14:35;;;;;;;14.70;3.45;;;6.30;99.90;;;5.48;100.00;101675.28;4849950;29;20055;-91
2020/12/21 05:17:16;;;;;;;7.63;3.47;;;5.90;99.90;;;5.44;100.00;101682.81;4835295;29;20045;-91
2020/12/21 05:19:42;;;;;;;16.77;3.45;;;6.10;99.90;;;5.53;100.00;101678.38;4836664;29;20038;-92
2020/12/21 05:22:16;;;;;;;8.68;3.67;;;5.50;99.90;;;5.56;100.00;101677.25;4850059;29;20040;-91
2020/12/21 05:24:45;;;;;;;9.15;4.20;;;5.60;99.90;;;5.61;100.00;101669.56;4838536;29;20046;-92
2020/12/21 05:27:17;;;;;;;7.15;3.17;;;5.60;99.90;;;5.54;100.00;101665.75;4868452;29;20089;-91
2020/12/21 05:29:53;;;;;;;9.52;3.13;;;5.70;99.90;;;5.60;100.00;101670.56;4860561;29;20042;-92
2020/12/21 05:32:20;;;;;;;27.00;3.95;;;5.50;99.90;;;5.60;100.00;101670.56;4853585;29;20030;-92
2020/12/21 05:34:47;;;;;;;10.02;3.03;;;5.50;99.90;;;5.71;100.00;101675.78;4854134;29;20065;-91
2020/12/21 05:37:21;;;;;;;4.47;2.38;;;6.10;99.90;;;5.62;100.00;101679.38;4852811;29;20064;-91
2020/12/21 05:39:56;;;;;;;5.53;3.10;;;5.30;99.90;;;5.62;100.00;101674.81;4849496;29;20041;-93
2020/12/21 05:42:23;;;;;;;11.85;3.90;;;5.60;99.90;;;5.60;100.00;101670.56;4872399;29;20033;-91
2020/12/21 05:45:01;;;;;;;8.77;3.05;;;5.60;99.90;;;5.56;100.00;101664.59;4854341;29;20034;-90
2020/12/21 05:47:28;;;;;;;9.23;3.85;;;5.50;99.90;;;5.52;100.00;101663.22;4852154;29;20050;-92
2020/12/21 05:50:02;;;;;;;7.10;3.20;;;5.60;99.90;;;5.45;100.00;101673.72;4851872;29;20049;-92
2020/12/21 05:52:33;;;;;;;8.85;3.67;;;5.40;99.90;;;5.42;100.00;101668.63;4850103;29;20046;-91
2020/12/21 05:55:08;;;;;;;7.30;3.13;;;5.30;99.90;;;5.45;100.00;101673.72;4868370;29;20029;-91
2020/12/21 05:57:38;;;;;;;16.80;3.60;;;5.20;99.90;;;5.39;100.00;101674.34;4854577;29;20029;-91
2020/12/21 06:00:14;;;;;;;5.95;3.25;;;5.30;99.90;;;5.36;100.00;101674.63;4855343;29;20053;-91
2020/12/21 06:02:40;;;;;;;11.98;3.28;;;4.50;99.90;;;5.38;100.00;101664.53;4845243;29;20041;-93
2020/12/21 06:05:08;;;;;;;9.45;4.10;;;5.40;99.90;;;5.40;100.00;101665.25;4840608;29;20037;-92
2020/12/21 06:07:36;;;;;;;9.88;3.47;;;5.50;99.90;;;5.50;100.00;101669.75;4858732;29;20088;-90
2020/12/21 06:10:08;;;;;;;11.00;4.18;;;5.40;99.90;;;5.47;100.00;101670.88;4852648;29;20022;-92
2020/12/21 06:12:46;;;;;;;12.43;3.70;;;5.90;99.90;;;5.35;100.00;101677.47;4885129;29;20046;-89
2020/12/21 06:15:21;;;;;;;15.90;3.58;;;5.40;99.90;;;5.55;100.00;101662.03;4867077;29;20017;-92
2020/12/21 06:17:48;;;;;;;10.77;3.92;;;5.70;99.90;;;5.59;100.00;101671.56;4870446;29;20018;-90
2020/12/21 06:20:13;;;;;;;9.93;4.00;;;5.60;99.90;;;5.54;100.00;101654.94;4873019;29;20025;-92
2020/12/21 06:22:39;;;;;;;11.88;3.50;;;5.50;99.90;;;5.47;100.00;101655.53;4839369;29;20030;-91
2020/12/21 06:25:07;;;;;;;9.98;4.15;;;5.50;99.90;;;5.68;100.00;101657.16;4863609;29;20033;-90
2020/12/21 06:27:42;;;;;;;14.88;3.83;;;5.90;99.90;;;5.67;100.00;101650.06;4845882;29;20128;-90
2020/12/21 06:30:13;;;;;;;11.60;4.18;;;5.40;99.90;;;5.65;100.00;101652.06;4863969;29;20037;-91
2020/12/21 06:32:40;;;;;;;14.38;4.35;;;6.10;99.90;;;5.71;100.00;101651.47;4878949;29;20057;-90
2020/12/21 06:35:19;;;;;;;14.32;5.10;;;5.60;99.90;;;5.63;100.00;101649.53;4854527;29;20023;-92
2020/12/21 06:38:00;;;;;;;17.67;4.60;;;5.60;99.90;;;5.60;100.00;101657.06;4879739;29;20026;-93
2020/12/21 06:40:34;;;;;;;7.47;3.90;;;5.60;99.90;;;5.67;100.00;101660.84;4864500;29;20029;-93
2020/12/21 06:43:14;;;;;;;8.65;4.35;;;6.30;99.90;;;5.53;100.00;101664.06;4853046;29;20045;-91
2020/12/21 06:45:40;;;;;;;11.63;3.97;;;5.70;99.90;;;5.70;100.00;101671.38;4850986;29;20038;-93
2020/12/21 06:48:08;;;;;;;14.05;4.32;;;6.20;99.90;;;5.76;100.00;101670.75;4850602;29;20126;-92
2020/12/21 06:50:34;;;;;;;13.82;4.07;;;5.70;99.90;;;5.72;100.00;101664.84;4854514;29;20022;-93
2020/12/21 06:53:07;;;;;;;10.23;3.83;;;5.70;99.90;;;5.73;100.00;101652.19;4869558;29;20063;-93
2020/12/21 06:55:37;;;;;;;8.50;3.70;;;5.70;99.90;;;5.77;100.00;101656.25;4869260;29;20093;-90
2020/12/21 06:58:03;;;;;;;11.25;4.50;;;5.70;99.90;;;5.78;100.00;101652.56;4854597;29;20049;-94
2020/12/21 07:00:30;;;;;;;16.25;4.25;;;6.20;99.90;;;5.81;100.00;101641.47;4889926;29;20017;-92
2020/12/21 07:02:58;;;;;;;12.52;4.13;;;5.80;99.90;;;5.78;100.00;101637.22;4872175;29;20117;-92
2020/12/21 07:05:24;;;;;;;10.48;4.85;;;6.40;99.90;;;5.79;100.00;101632.66;4831800;29;20042;-91
2020/12/21 07:07:59;;;;;;;17.80;4.63;;;5.70;99.90;;;5.84;100.00;101630.38;4848892;29;20055;-93
2020/12/21 07:10:25;;;;;;;14.13;4.00;;;5.70;99.90;;;5.93;100.00;101629.50;4839017;29;20049;-93
2020/12/21 07:12:53;;;;;;;13.55;4.57;;;5.90;99.90;;;5.91;100.00;101630.63;4842802;29;20026;-89
2020/12/21 07:15:21;;;;;;;8.82;3.78;;;5.90;99.90;;;5.97;100.00;101636.31;4842676;29;20105;-90
2020/12/21 07:17:47;;;;;;;9.88;3.90;;;5.90;99.90;;;6.01;100.00;101636.84;4840758;29;20034;-91
2020/12/21 07:20:13;;;;;;;9.82;3.67;;;5.90;99.90;;;5.89;100.00;101632.63;4827816;29;20029;-91
2020/12/21 07:22:43;;;;;;;11.65;3.92;;;6.10;99.90;;;5.98;100.00;101632.56;4845676;29;20038;-91
2020/12/21 07:25:11;;;;;;;15.23;4.38;;;6.00;99.90;;;5.94;100.00;101617.69;4829268;29;20037;-91
2020/12/21 07:27:46;;;;;;;9.70;3.75;;;6.10;99.90;;;5.90;100.00;101624.38;4857854;29;20067;-91
2020/12/21 07:30:15;;;;;;;12.10;3.90;;;6.00;99.90;;;5.97;100.00;101614.69;4857764;29;20032;-93
2020/12/21 07:37:06;;;;;;;11.90;5.38;;;6.00;99.90;;;6.13;100.00;101606.75;4861848;29;20028;-91
2020/12/21 07:39:32;;;;;;;13.82;4.85;;;5.90;99.90;;;6.25;100.00;101606.53;4858757;29;20404;-93
2020/12/21 07:42:05;;;;;;;16.20;4.57;;;6.20;99.90;;;6.26;100.00;101602.81;4851190;29;20030;-92
2020/12/21 07:44:34;;;;;;;15.25;5.30;;;6.30;99.90;;;6.38;100.00;101604.28;4878551;29;20025;-93
2020/12/21 07:47:06;;;;;;;11.45;4.53;;;6.70;99.90;;;6.17;100.00;101597.34;4850224;29;20133;-93
2020/12/21 07:49:36;;;;;;;13.13;5.25;;;6.40;99.90;;;6.41;100.00;101607.53;4842292;29;20042;-92
2020/12/21 07:52:06;;;;;;;14.60;5.18;;;6.30;99.90;;;6.29;100.00;101600.66;4851507;29;20041;-92
2020/12/21 07:54:43;;;;;;;11.35;4.82;;;6.30;99.90;;;6.21;100.00;101595.16;4858049;29;20057;-92
2020/12/21 07:57:13;;;;;;;16.02;5.03;;;6.30;99.90;;;6.18;100.00;101584.66;4845807;29;20030;-92
2020/12/21 07:59:39;;;;;;;14.10;4.82;;;6.50;99.90;;;6.23;100.00;101587.75;4844753;29;20026;-92
2020/12/21 08:02:10;;;;;;;12.18;5.07;;;6.30;99.90;;;6.23;100.00;101592.31;4857969;29;20101;-93
2020/12/21 08:04:36;;;;;;;20.15;6.05;;;6.10;99.90;;;6.27;100.00;101591.84;4863286;29;20037;-92
2020/12/21 08:07:11;;;;;;;16.23;5.70;;;6.30;99.90;;;6.35;100.00;101596.47;4847951;29;20045;-92
2020/12/21 08:09:39;;;;;;;9.10;4.50;;;6.70;99.90;;;6.43;100.00;101585.75;4845927;29;20054;-92
2020/12/21 08:15:47;;;;;;;17.55;4.35;;;6.50;99.90;;;6.44;100.00;101584.72;4876454;29;20093;-90
2020/12/21 08:18:13;;;;;;;13.38;4.50;;;6.50;99.90;;;6.56;100.00;101578.06;4857058;29;20034;-90
2020/12/21 08:20:53;;;;;;;13.50;4.90;;;6.50;99.90;;;6.53;100.00;101575.72;4858598;29;20516;-92
2020/12/21 08:23:37;;;;;;;15.52;4.93;;;6.60;99.90;;;6.72;100.00;101567.41;4857188;29;20037;-92
2020/12/21 08:26:14;;;;;;;10.63;4.70;;;6.70;99.90;;;6.60;100.00;101563.25;4879202;29;20044;-93
2020/12/21 08:28:40;;;;;;;14.20;5.80;;;6.70;99.90;;;6.82;100.00;101565.44;4864463;29;20120;-92
2020/12/21 08:31:15;;;;;;;16.10;6.43;;;6.80;99.90;;;6.95;100.00;101561.47;4834707;29;20034;-92
2020/12/21 08:33:58;;;;;;;14.88;5.80;;;6.90;99.90;;;7.02;100.00;101559.81;4870938;29;20036;-91
2020/12/21 08:36:34;;;;;;;19.35;5.40;;;6.90;99.90;;;7.00;100.00;101567.25;4876109;29;20097;-91
2020/12/21 08:39:20;;;;;;;13.57;5.45;;;7.00;99.90;;;7.02;100.00;101562.50;4892198;29;20077;-91
2020/12/21 08:42:04;;;;;;;25.23;6.88;;;7.00;99.90;;;7.04;100.00;101544.25;4862702;29;20081;-90
2020/12/21 08:44:30;;;;;;;14.43;5.80;;;7.00;99.90;;;7.21;100.00;101557.75;4864799;29;20033;-93
2020/12/21 08:46:59;;;;;;;18.63;6.60;;;7.10;99.90;;;7.08;100.00;101546.50;4869831;29;20017;-91
2020/12/21 08:49:28;;;;;;;18.55;6.60;;;7.10;99.90;;;7.19;100.00;101546.22;4841477;29;20053;-92
2020/12/21 08:52:04;;;;;;;12.85;5.30;;;8.10;99.90;;;7.01;100.00;101536.47;4862425;29;20058;-89
2020/12/21 08:54:31;;;;;;;17.45;6.28;;;7.50;99.90;;;6.93;100.00;101521.88;4859132;29;20013;-89
2020/12/21 08:56:58;;;;;;;11.77;5.75;;;7.10;99.90;;;7.08;100.00;101524.00;4841274;29;20485;-89
2020/12/21 08:59:25;;;;;;;12.23;6.60;;;7.10;99.90;;;7.15;100.00;101514.22;4858849;29;20028;-90
2020/12/21 09:01:51;;;;;;;11.70;6.60;;;7.20;99.90;;;7.18;100.00;101508.47;4874401;29;20056;-91
2020/12/21 09:04:17;;;;;;;15.65;6.80;;;7.20;99.90;;;7.18;100.00;101503.06;4843091;29;20030;-89
2020/12/21 09:06:43;;;;;;;12.50;5.63;;;7.20;99.90;;;7.33;100.00;101512.28;4863594;29;20038;-89
2020/12/21 09:09:12;;;;;;;9.77;4.85;;;7.20;99.90;;;7.34;100.00;101513.94;4837352;29;20036;-90
2020/12/21 09:11:39;;;;;;;13.15;5.35;;;7.30;99.90;;;7.27;100.00;101513.75;4870225;29;20492;-90
2020/12/21 09:14:05;;;;;;;12.70;4.63;;;7.20;99.90;;;7.20;100.00;101509.16;4856478;29;20038;-91
2020/12/21 09:16:31;;;;;;;8.48;4.65;;;7.30;99.90;;;7.26;100.00;101512.06;4859940;29;20077;-91
2020/12/21 09:18:59;;;;;;;10.70;4.03;;;7.30;99.90;;;7.27;100.00;101502.09;4835288;29;20034;-89
2020/12/21 09:21:28;;;;;;;12.90;4.15;;;7.30;99.90;;;7.35;100.00;101510.22;4837120;29;20038;-90
2020/12/21 09:23:58;;;;;;;18.35;5.93;;;7.30;99.90;;;7.30;100.00;101507.19;4826970;29;20038;-90
2020/12/21 09:26:25;;;;;;;8.32;4.50;;;7.40;99.90;;;7.31;100.00;101506.19;4861434;29;20038;-90
2020/12/21 09:28:53;;;;;;;9.20;4.18;;;7.40;99.90;;;7.42;100.00;101500.47;4840429;29;20041;-90
2020/12/21 09:31:20;;;;;;;8.95;4.07;;;7.40;99.90;;;7.39;100.00;101517.03;4841765;29;20061;-90
2020/12/21 09:33:48;;;;;;;10.10;4.70;;;7.30;99.90;;;7.43;100.00;101518.41;4839990;29;20033;-90
2020/12/21 09:36:19;;;;;;;8.60;4.35;;;7.30;99.90;;;7.48;100.00;101513.34;4842752;29;20037;-91
2020/12/21 09:38:49;;;;;;;9.73;4.20;;;7.40;99.90;;;7.38;100.00;101501.78;4842424;29;20065;-90
2020/12/21 09:41:20;;;;;;;13.50;4.75;;;7.50;99.90;;;7.36;100.00;101501.09;4840831;29;20045;-91
2020/12/21 09:43:50;;;;;;;11.55;4.68;;;8.20;99.90;;;7.33;100.00;101487.91;4841072;29;20057;-89
2020/12/21 09:46:24;;;;;;;19.95;5.80;;;7.40;99.90;;;7.39;100.00;101484.53;4860495;29;20157;-89
2020/12/21 09:48:53;;;;;;;12.93;6.15;;;7.40;99.90;;;7.39;100.00;101473.69;4844794;29;20038;-92
2020/12/21 09:51:23;;;;;;;13.98;5.22;;;7.40;99.90;;;7.39;100.00;101462.88;4846615;29;20114;-90
2020/12/21 09:53:49;;;;;;;13.10;4.22;;;7.40;99.90;;;7.24;100.00;101461.78;4858190;29;20045;-91
2020/12/21 09:56:16;;;;;;;14.23;6.25;;;7.30;99.90;;;7.37;100.00;101464.88;4855187;29;20562;-90
2020/12/21 09:58:43;;;;;;;11.23;5.05;;;7.40;99.90;;;7.49;100.00;101474.41;4872597;29;20389;-90
2020/12/21 10:01:09;;;;;;;11.93;4.82;;;7.40;99.90;;;7.55;100.00;101465.63;4827183;29;20057;-89
2020/12/21 10:03:41;;;;;;;7.13;5.75;;;7.40;99.90;;;7.41;100.00;101455.44;4856546;29;20191;-90
2020/12/21 10:06:09;;;;;;;7.50;4.43;;;7.50;99.90;;;7.45;100.00;101464.91;4875825;29;20025;-90
2020/12/21 10:08:37;;;;;;;8.35;4.68;;;7.50;99.90;;;7.48;100.00;101452.91;4848288;29;20033;-91
2020/12/21 10:11:19;;;;;;;6.10;4.00;;;7.60;99.90;;;7.50;100.00;101454.44;4832385;29;20034;-89
2020/12/21 10:13:45;;;;;;;9.02;4.03;;;7.30;99.90;;;7.60;100.00;101449.72;4893889;24;20061;-91
2020/12/21 10:16:14;;;;;;;9.18;4.88;;;8.30;99.90;;;7.69;100.00;101436.16;4865213;29;20037;-92
2020/12/21 10:18:39;;;;;;;11.23;4.18;;;8.00;99.90;;;7.72;100.00;101420.44;4833029;29;20101;-92
2020/12/21 10:21:08;;;;;;;6.90;4.18;;;8.00;99.90;;;7.51;100.00;101433.63;4842882;29;20033;-91
2020/12/21 10:23:45;;;;;;;8.65;4.72;;;7.60;99.90;;;7.50;100.00;101421.06;4859332;29;20097;-91
2020/12/21 10:26:12;;;;;;;8.50;3.92;;;7.60;99.90;;;7.43;100.00;101415.50;4833323;29;20059;-92
2020/12/21 10:28:40;;;;;;;8.35;3.65;;;7.60;99.90;;;7.44;100.00;101405.50;4844055;29;20030;-93
2020/12/21 10:31:10;;;;;;;12.30;4.18;;;7.60;99.90;;;7.51;100.00;101396.53;4828447;29;20049;-90
2020/12/21 10:36:31;;;;;;;7.30;3.08;;;7.60;99.90;;;7.49;100.00;101387.72;4953713;23;19924;-94